Time;durP1;ratioP1;P1;durP2;ratioP2;P2;SDS_P1;SDS_P2;PMS_P1;PMS_P2;Temp;Humidity;BMP_temperature;BMP_pressure;BME280_temperature;BME280_humidity;BME280_pressure;Samples;Min_cycle;Max_cycle;Signal;HPM_P1;HPM_P2
2023/03/02 00:03:05;;;;;;;13.43;7.13;;;;;;;0.87;51.94;101328.41;10177423;29;20116;-80
2023/03/02 00:08:09;;;;;;;11.43;6.40;;;;;;;0.82;52.09;101326.78;10162425;29;20048;-81
2023/03/02 00:13:14;;;;;;;13.50;6.10;;;;;;;0.88;51.77;101335.44;10175668;29;20427;-82
2023/03/02 00:18:17;;;;;;;16.52;7.32;;;;;;;0.88;51.87;101325.75;10175711;29;20052;-79
2023/03/02 00:23:20;;;;;;;14.00;7.22;;;;;;;0.82;51.52;101323.22;10177111;29;20098;-81
2023/03/02 00:28:24;;;;;;;12.77;6.50;;;;;;;0.68;51.88;101320.06;10176887;29;20091;-80
2023/03/02 00:33:27;;;;;;;13.43;6.43;;;;;;;0.63;52.32;101322.81;10176361;29;20075;-79
2023/03/02 00:38:29;;;;;;;13.05;6.32;;;;;;;0.58;52.32;101337.97;10174978;29;20086;-79
2023/03/02 00:43:34;;;;;;;14.00;7.03;;;;;;;0.51;52.46;101339.00;10176258;29;20048;-80
2023/03/02 00:48:37;;;;;;;12.55;6.72;;;;;;;0.54;52.30;101331.00;10177609;29;20040;-80
2023/03/02 00:53:41;;;;;;;11.07;6.40;;;;;;;0.53;52.38;101326.63;10177334;29;20048;-80
2023/03/02 00:58:45;;;;;;;11.75;7.03;;;;;;;0.49;52.58;101333.72;10197594;29;20183;-79
2023/03/02 01:03:48;;;;;;;14.73;7.53;;;;;;;0.40;52.99;101331.31;10172324;29;20056;-78
2023/03/02 01:08:52;;;;;;;17.60;7.57;;;;;;;0.41;53.11;101332.19;10170992;29;20099;-79
2023/03/02 01:13:56;;;;;;;16.98;7.93;;;;;;;0.34;53.33;101321.75;10171450;29;20254;-80
2023/03/02 01:18:59;;;;;;;16.20;7.93;;;;;;;0.23;53.72;101322.94;10171871;29;20068;-81
2023/03/02 01:24:02;;;;;;;13.27;7.85;;;;;;;0.17;53.93;101324.81;10171042;29;20507;-78
2023/03/02 01:29:06;;;;;;;12.98;7.38;;;;;;;0.13;54.39;101315.19;10172342;29;20071;-80
2023/03/02 01:34:09;;;;;;;16.73;8.20;;;;;;;0.06;54.40;101304.81;10170998;29;20446;-80
2023/03/02 01:39:14;;;;;;;16.83;8.20;;;;;;;-0.03;54.62;101291.81;10172264;29;20041;-78
2023/03/02 01:44:40;;;;;;;16.00;8.18;;;;;;;-0.09;55.09;101290.16;10176767;29;20056;-81
2023/03/02 01:49:49;;;;;;;16.92;8.15;;;;;;;-0.17;55.07;101292.09;10178347;29;20418;-81
2023/03/02 01:54:55;;;;;;;18.88;8.43;;;;;;;-0.21;55.41;101291.31;10180177;29;20119;-78
2023/03/02 02:00:05;;;;;;;15.63;7.90;;;;;;;-0.28;55.76;101282.63;10177958;29;20152;-80
2023/03/02 02:05:18;;;;;;;16.10;8.05;;;;;;;-0.28;55.77;101273.84;10173148;29;20048;-78
2023/03/02 02:10:22;;;;;;;15.63;8.38;;;;;;;-0.38;55.61;101267.06;10178884;29;20036;-81
2023/03/02 02:15:27;;;;;;;16.00;7.90;;;;;;;-0.39;55.83;101267.94;10179619;29;20078;-80
2023/03/02 02:20:35;;;;;;;18.00;7.53;;;;;;;-0.39;55.86;101257.38;10179475;29;20408;-81
2023/03/02 02:25:48;;;;;;;13.80;7.18;;;;;;;-0.40;55.98;101258.28;10178885;29;20039;-81
2023/03/02 02:30:58;;;;;;;14.35;7.57;;;;;;;-0.45;55.95;101268.94;10176941;29;20071;-80
2023/03/02 02:36:07;;;;;;;11.77;7.03;;;;;;;-0.50;56.13;101257.59;10180350;29;20048;-80
2023/03/02 02:41:18;;;;;;;16.23;7.47;;;;;;;-0.53;56.57;101260.31;10177163;29;20048;-79
2023/03/02 02:46:24;;;;;;;14.02;7.50;;;;;;;-0.57;56.70;101264.78;10173166;29;20102;-78
2023/03/02 02:51:29;;;;;;;12.90;7.53;;;;;;;-0.66;56.57;101257.06;10170933;29;20526;-77
2023/03/02 02:56:34;;;;;;;11.82;6.85;;;;;;;-0.67;56.71;101257.09;10174276;29;20103;-78
2023/03/02 03:01:39;;;;;;;14.43;7.68;;;;;;;-0.64;56.75;101262.31;10176642;29;20056;-80
2023/03/02 03:06:50;;;;;;;13.57;7.22;;;;;;;-0.69;56.65;101264.16;10194823;29;20151;-82
2023/03/02 03:11:56;;;;;;;12.15;7.45;;;;;;;-0.85;57.50;101269.78;10216983;28;20049;-82
2023/03/02 03:17:01;;;;;;;13.40;7.65;;;;;;;-1.11;59.20;101277.31;10212506;29;20060;-78
2023/03/02 03:22:04;;;;;;;15.57;8.48;;;;;;;-1.14;59.48;101265.03;10178872;29;20518;-77
2023/03/02 03:27:13;;;;;;;15.40;8.35;;;;;;;-1.03;59.59;101262.22;10169420;29;20048;-81
2023/03/02 03:32:18;;;;;;;14.73;8.65;;;;;;;-1.02;59.19;101258.66;10175758;29;20127;-81
2023/03/02 03:37:23;;;;;;;12.73;7.32;;;;;;;-0.98;59.17;101253.31;10169029;29;20060;-81
2023/03/02 03:42:26;;;;;;;14.70;7.65;;;;;;;-0.99;58.92;101250.69;10174490;29;20570;-78
2023/03/02 03:47:32;;;;;;;14.80;7.20;;;;;;;-0.99;58.61;101250.69;10174248;29;20431;-80
2023/03/02 03:52:36;;;;;;;15.02;7.65;;;;;;;-0.97;58.31;101256.81;10175134;29;20064;-78
2023/03/02 03:57:47;;;;;;;13.13;7.63;;;;;;;-1.18;58.19;101264.25;10174674;29;20383;-78
2023/03/02 04:02:51;;;;;;;15.77;7.72;;;;;;;-1.10;58.26;101268.47;10177577;23;20100;-77
2023/03/02 04:07:55;;;;;;;17.30;8.52;;;;;;;-1.15;58.34;101263.31;10170692;29;20071;-78
2023/03/02 04:12:58;;;;;;;14.98;7.70;;;;;;;-1.10;58.24;101260.56;10160796;29;20495;-78
2023/03/02 04:18:03;;;;;;;16.00;8.68;;;;;;;-1.07;58.29;101257.88;10160819;29;20066;-76
2023/03/02 04:23:07;;;;;;;13.52;7.25;;;;;;;-1.04;58.26;101256.06;10165819;29;20044;-79
2023/03/02 04:28:10;;;;;;;16.80;7.30;;;;;;;-0.96;57.87;101250.63;10164820;29;20079;-78
2023/03/02 04:33:16;;;;;;;21.13;8.00;;;;;;;-0.95;57.97;101257.66;10167130;29;20170;-77
2023/03/02 04:38:19;;;;;;;13.68;7.63;;;;;;;-0.97;57.37;101252.41;10156237;29;20139;-78
2023/03/02 04:43:23;;;;;;;14.63;7.38;;;;;;;-1.13;58.30;101247.44;10178316;29;20439;-78
2023/03/02 04:48:27;;;;;;;12.05;6.93;;;;;;;-1.17;58.89;101257.19;10161525;29;20052;-78
2023/03/02 04:53:29;;;;;;;17.55;8.25;;;;;;;-1.11;58.52;101264.97;10158856;29;20075;-78
2023/03/02 04:58:32;;;;;;;14.32;7.35;;;;;;;-1.19;58.64;101274.78;10163290;29;20095;-79
2023/03/02 05:03:36;;;;;;;13.68;6.80;;;;;;;-1.26;58.70;101258.22;10157445;29;20047;-78
2023/03/02 05:08:40;;;;;;;11.65;6.90;;;;;;;-1.25;59.04;101254.69;10167864;29;20049;-78
2023/03/02 05:13:42;;;;;;;14.73;7.10;;;;;;;-1.24;59.38;101255.56;10159954;29;20542;-78
2023/03/02 05:18:47;;;;;;;16.23;7.05;;;;;;;-1.17;59.53;101254.56;10170243;29;20095;-79
2023/03/02 05:23:51;;;;;;;14.40;7.80;;;;;;;-1.14;59.64;101249.22;10170465;29;20707;-77
2023/03/02 05:28:53;;;;;;;13.77;7.28;;;;;;;-1.14;60.03;101249.22;10163919;29;20079;-78
2023/03/02 05:33:58;;;;;;;15.70;8.00;;;;;;;-1.10;60.16;101253.53;10171033;29;20036;-78
2023/03/02 05:39:02;;;;;;;14.35;8.18;;;;;;;-1.13;60.63;101252.72;10163725;29;20040;-79
2023/03/02 05:44:08;;;;;;;13.40;7.72;;;;;;;-1.15;60.90;101249.22;10172861;29;20088;-79
2023/03/02 05:49:12;;;;;;;16.10;8.43;;;;;;;-1.10;61.14;101253.53;10168376;29;20095;-79
2023/03/02 05:54:15;;;;;;;16.08;8.95;;;;;;;-1.13;60.99;101253.59;10167114;29;20087;-78
2023/03/02 05:59:18;;;;;;;17.40;9.00;;;;;;;-1.17;61.60;101260.69;10171443;29;20067;-78
2023/03/02 06:04:22;;;;;;;18.42;9.73;;;;;;;-1.19;61.77;101259.84;10164380;29;20056;-78
2023/03/02 06:09:25;;;;;;;21.35;10.38;;;;;;;-1.17;62.07;101259.81;10173845;29;20048;-78
2023/03/02 06:14:27;;;;;;;18.88;9.65;;;;;;;-1.22;62.53;101269.59;10171078;29;20076;-78
2023/03/02 06:19:32;;;;;;;19.95;10.15;;;;;;;-1.24;62.85;101261.69;10187732;29;20407;-77
2023/03/02 06:24:34;;;;;;;23.33;10.40;;;;;;;-1.17;63.29;101265.97;10190003;29;20048;-77
2023/03/02 06:29:37;;;;;;;26.15;11.50;;;;;;;-1.14;63.82;101267.69;10183460;29;20059;-77
2023/03/02 06:34:42;;;;;;;30.90;13.45;;;;;;;-1.00;63.77;101276.19;10190136;29;20056;-79
2023/03/02 06:39:45;;;;;;;28.95;13.25;;;;;;;-0.76;63.99;101284.53;10185425;29;20056;-77
2023/03/02 06:44:48;;;;;;;26.75;12.43;;;;;;;-0.50;63.55;101287.50;10174605;29;20048;-78
2023/03/02 06:49:52;;;;;;;26.77;13.75;;;;;;;-0.33;63.33;101288.91;10173931;29;20044;-78
2023/03/02 06:54:56;;;;;;;25.75;12.18;;;;;;;-0.10;63.03;101299.00;10175605;29;20500;-79
2023/03/02 06:59:59;;;;;;;25.30;13.60;;;;;;;0.24;62.39;101293.81;10185473;29;20043;-78
2023/03/02 07:05:03;;;;;;;31.08;14.50;;;;;;;0.34;61.71;101289.19;10183254;29;20040;-77
2023/03/02 07:10:07;;;;;;;34.42;16.27;;;;;;;0.45;62.02;101297.72;10171191;29;20447;-79
2023/03/02 07:15:12;;;;;;;53.83;21.50;;;;;;;1.01;65.11;101307.75;10178224;29;20074;-75
2023/03/02 07:20:18;;;;;;;33.63;18.42;;;;;;;1.54;62.28;101293.94;10178429;29;20048;-78
2023/03/02 07:25:21;;;;;;;26.77;14.40;;;;;;;2.01;60.56;101281.06;10158062;29;20050;-78
2023/03/02 07:30:24;;;;;;;24.90;14.02;;;;;;;2.39;58.72;101285.13;10176697;29;20056;-78
2023/03/02 07:35:28;;;;;;;30.00;16.55;;;;;;;2.77;57.92;101291.84;10178933;29;20076;-76
2023/03/02 07:40:31;;;;;;;30.33;14.93;;;;;;;3.03;56.40;101290.94;10161867;29;20042;-79
2023/03/02 07:45:34;;;;;;;34.15;18.88;;;;;;;3.34;55.73;101281.00;10176182;29;20048;-77
2023/03/02 07:50:38;;;;;;;29.88;16.92;;;;;;;3.40;55.40;101294.94;10175858;29;20072;-77
2023/03/02 07:55:41;;;;;;;33.60;15.82;;;;;;;3.56;54.92;101287.25;10182776;29;20181;-78
2023/03/02 08:00:44;;;;;;;31.35;16.08;;;;;;;3.58;55.32;101287.19;10169660;29;20059;-77
2023/03/02 08:05:48;;;;;;;33.08;17.77;;;;;;;4.27;54.01;101281.84;10137470;29;21270;-77
2023/03/02 08:10:51;;;;;;;40.72;18.70;;;;;;;4.14;53.05;101279.69;10154569;29;20052;-78
2023/03/02 08:15:59;;;;;;;41.75;18.67;;;;;;;3.84;55.21;101279.13;10141328;29;20078;-79
2023/03/02 08:21:04;;;;;;;34.83;18.52;;;;;;;4.38;54.13;101271.63;10144474;29;20056;-78
2023/03/02 08:26:06;;;;;;;36.67;19.73;;;;;;;4.74;53.12;101279.88;10160981;29;20056;-78
2023/03/02 08:31:10;;;;;;;33.30;17.75;;;;;;;5.10;52.02;101275.72;10145420;29;20209;-76
2023/03/02 08:36:16;;;;;;;34.20;17.05;;;;;;;5.37;51.14;101273.63;10139990;29;20056;-79
2023/03/02 08:41:21;;;;;;;36.88;19.52;;;;;;;5.42;51.07;101268.97;10150118;29;20134;-77
2023/03/02 08:46:24;;;;;;;32.70;17.45;;;;;;;4.70;51.47;101267.63;10130300;29;21354;-77
2023/03/02 08:51:28;;;;;;;38.17;18.88;;;;;;;3.63;53.11;101274.63;10135983;29;20075;-78
2023/03/02 08:56:34;;;;;;;33.55;17.95;;;;;;;4.96;52.88;101265.63;10137666;29;20062;-77
2023/03/02 09:01:38;;;;;;;34.42;18.25;;;;;;;5.05;52.29;101260.81;10131447;29;20640;-77
2023/03/02 09:06:44;;;;;;;35.42;19.38;;;;;;;5.01;53.58;101266.34;10136705;29;20127;-77
2023/03/02 09:11:46;;;;;;;35.00;18.30;;;;;;;5.29;52.05;101265.97;10137639;29;20050;-78
2023/03/02 09:16:51;;;;;;;35.83;19.17;;;;;;;5.59;51.08;101252.19;10145803;29;20051;-78
2023/03/02 09:21:55;;;;;;;30.42;17.38;;;;;;;6.15;49.95;101248.66;10142642;29;20536;-77
2023/03/02 09:26:58;;;;;;;35.22;18.63;;;;;;;6.34;49.35;101245.94;10123181;29;20055;-77
2023/03/02 09:32:01;;;;;;;31.60;17.35;;;;;;;5.11;51.48;101253.50;10133383;29;20055;-79
2023/03/02 09:37:05;;;;;;;29.73;17.65;;;;;;;5.51;52.16;101257.88;10133525;29;20048;-77
2023/03/02 09:42:27;;;;;;;32.35;17.80;;;;;;;6.59;49.71;101264.25;10135367;29;20475;-77
2023/03/02 09:47:55;;;;;;;30.13;16.85;;;;;;;7.08;47.95;101258.22;10131180;29;20420;-77
2023/03/02 09:53:28;;;;;;;27.63;15.18;;;;;;;7.43;47.87;101259.88;10147323;29;20467;-78
2023/03/02 09:58:36;;;;;;;26.85;15.80;;;;;;;6.16;49.89;101256.56;10156099;29;20708;-77
2023/03/02 10:03:47;;;;;;;27.40;15.50;;;;;;;6.88;48.66;101252.09;10143543;29;20091;-77
2023/03/02 10:08:52;;;;;;;28.70;16.80;;;;;;;7.42;47.43;101258.16;10131583;29;20055;-77
2023/03/02 10:14:00;;;;;;;31.42;15.80;;;;;;;7.89;47.15;101256.47;10144226;29;20048;-77
2023/03/02 10:19:09;;;;;;;30.48;16.30;;;;;;;8.54;46.36;101251.00;10140645;29;20063;-77
2023/03/02 10:24:23;;;;;;;27.50;15.05;;;;;;;9.15;44.64;101241.97;10140754;29;20064;-77
2023/03/02 10:29:45;;;;;;;26.48;15.32;;;;;;;9.13;44.20;101253.72;10147262;29;20062;-78
2023/03/02 10:34:49;;;;;;;27.73;15.15;;;;;;;9.41;43.92;101251.09;10134664;29;20574;-78
2023/03/02 10:39:54;;;;;;;27.58;14.98;;;;;;;9.76;43.26;101244.44;10150199;29;20048;-79
2023/03/02 10:45:08;;;;;;;24.45;14.40;;;;;;;10.21;42.34;101240.63;10149441;29;20071;-78
2023/03/02 10:50:21;;;;;;;22.10;15.02;;;;;;;10.74;41.80;101232.59;10144698;29;20078;-77
2023/03/02 10:55:26;;;;;;;24.13;15.07;;;;;;;10.93;40.99;101233.06;10138000;29;20064;-78
2023/03/02 11:00:30;;;;;;;26.05;14.68;;;;;;;11.30;40.96;101229.66;10142406;29;20054;-78
2023/03/02 11:05:35;;;;;;;25.60;14.77;;;;;;;12.22;39.16;101225.66;10143200;29;20055;-78
2023/03/02 11:10:41;;;;;;;26.25;15.60;;;;;;;13.76;36.55;101215.47;10149198;29;20504;-77
2023/03/02 11:15:46;;;;;;;23.60;14.48;;;;;;;14.89;35.26;101210.53;10136932;29;20044;-78
2023/03/02 11:20:52;;;;;;;23.65;15.20;;;;;;;15.37;34.37;101209.13;10137115;29;20055;-78
2023/03/02 11:26:00;;;;;;;26.15;16.10;;;;;;;15.58;34.06;101193.66;10144611;29;20044;-79
2023/03/02 11:31:09;;;;;;;24.02;14.98;;;;;;;15.93;33.59;101197.72;10136576;29;20097;-79
2023/03/02 11:36:17;;;;;;;24.48;15.05;;;;;;;16.44;32.69;101183.13;10160578;29;20087;-78
2023/03/02 11:41:28;;;;;;;21.80;14.90;;;;;;;16.59;32.87;101183.53;10146470;29;20063;-76
2023/03/02 11:46:32;;;;;;;23.48;15.18;;;;;;;16.14;33.11;101179.50;10154763;29;21328;-76
2023/03/02 11:51:38;;;;;;;23.98;15.88;;;;;;;16.39;32.84;101171.00;10160106;29;20055;-80
2023/03/02 11:56:53;;;;;;;21.02;14.23;;;;;;;16.59;32.99;101164.53;10155330;29;20060;-77
2023/03/02 12:01:58;;;;;;;22.15;14.50;;;;;;;16.38;32.84;101161.16;10163309;29;21975;-78
2023/03/02 12:07:15;;;;;;;23.45;15.57;;;;;;;16.63;32.14;101157.00;10136970;29;20048;-78
2023/03/02 12:12:35;;;;;;;24.73;15.80;;;;;;;16.40;33.14;101159.13;10143490;29;20095;-77
2023/03/02 12:17:38;;;;;;;25.05;15.98;;;;;;;16.49;32.72;101145.59;10137493;29;20052;-79
2023/03/02 12:22:41;;;;;;;29.15;15.70;;;;;;;16.72;32.59;101137.13;10130001;29;20071;-79
2023/03/02 12:27:47;;;;;;;26.23;16.40;;;;;;;16.38;33.04;101121.34;10149624;29;20048;-76
2023/03/02 12:33:03;;;;;;;25.08;15.90;;;;;;;16.19;33.10;101114.03;10131036;29;20053;-77
2023/03/02 12:38:23;;;;;;;28.15;17.35;;;;;;;15.64;34.34;101114.56;10135704;29;20262;-77
2023/03/02 12:43:31;;;;;;;25.80;16.00;;;;;;;15.38;34.41;101105.25;10132337;29;20055;-80
2023/03/02 12:48:41;;;;;;;27.38;16.73;;;;;;;15.30;35.13;101102.34;10135096;29;20059;-77
2023/03/02 12:53:45;;;;;;;24.52;15.73;;;;;;;15.33;34.89;101088.53;10131367;29;20051;-76
2023/03/02 12:58:50;;;;;;;29.08;16.27;;;;;;;15.24;35.05;101087.50;10141679;29;20106;-80
2023/03/02 13:03:54;;;;;;;28.45;16.20;;;;;;;16.82;33.23;101078.25;10139190;29;20483;-79
2023/03/02 13:08:58;;;;;;;23.27;14.98;;;;;;;18.72;30.42;101071.88;10131467;29;20158;-80
2023/03/02 13:14:19;;;;;;;26.98;15.23;;;;;;;19.79;29.03;101070.44;10137737;29;20173;-80
2023/03/02 13:19:22;;;;;;;22.65;15.63;;;;;;;20.07;28.93;101058.19;10132422;29;21184;-79
2023/03/02 13:24:33;;;;;;;21.60;14.98;;;;;;;20.71;28.18;101054.75;10138607;29;20075;-78
2023/03/02 13:29:37;;;;;;;20.52;14.60;;;;;;;21.10;27.52;101052.06;10138787;29;20119;-79
2023/03/02 13:34:48;;;;;;;19.55;15.13;;;;;;;21.28;27.54;101046.31;10131713;29;20149;-80
2023/03/02 13:39:58;;;;;;;26.13;16.85;;;;;;;20.71;28.47;101043.81;10138377;29;20416;-78
2023/03/02 13:45:20;;;;;;;24.25;16.67;;;;;;;19.26;29.60;101049.88;10138077;29;20044;-80
2023/03/02 13:50:25;;;;;;;23.55;16.63;;;;;;;18.49;30.59;101037.03;10157462;29;20120;-77
2023/03/02 13:55:28;;;;;;;24.50;16.95;;;;;;;17.52;32.24;101042.47;10138525;29;20426;-78
2023/03/02 14:00:34;;;;;;;23.98;17.10;;;;;;;17.09;32.61;101042.16;10139098;29;20052;-79
2023/03/02 14:05:37;;;;;;;24.73;17.50;;;;;;;16.30;33.43;101034.44;10139600;29;20423;-79
2023/03/02 14:10:41;;;;;;;25.73;18.65;;;;;;;15.47;34.63;101036.75;10134775;29;20048;-78
2023/03/02 14:15:49;;;;;;;24.45;17.63;;;;;;;14.90;35.70;101031.00;10153444;29;20059;-78
2023/03/02 14:20:52;;;;;;;27.65;18.13;;;;;;;14.60;35.62;101029.19;10165777;29;20417;-77
2023/03/02 14:25:56;;;;;;;25.23;16.15;;;;;;;14.30;36.69;101017.31;10176400;29;20043;-79
2023/03/02 14:31:00;;;;;;;24.48;16.30;;;;;;;13.80;36.98;101022.53;10162203;29;20115;-80
2023/03/02 14:36:05;;;;;;;26.33;17.48;;;;;;;13.77;37.64;101019.19;10167097;29;20055;-80
2023/03/02 14:41:12;;;;;;;26.05;17.92;;;;;;;13.36;38.87;101024.38;10163825;29;20047;-80
2023/03/02 14:46:17;;;;;;;25.48;17.33;;;;;;;13.17;39.38;101018.78;10176754;29;20665;-80
2023/03/02 14:51:24;;;;;;;26.33;17.52;;;;;;;13.17;39.48;101013.38;10168479;29;20135;-80
2023/03/02 14:56:27;;;;;;;27.55;18.63;;;;;;;13.03;39.68;101015.38;10145126;29;20418;-79
2023/03/02 15:01:31;;;;;;;29.52;18.40;;;;;;;12.59;40.57;101008.19;10132568;29;20095;-78
2023/03/02 15:06:38;;;;;;;27.92;19.23;;;;;;;12.48;40.82;101010.84;10142625;29;20056;-76
2023/03/02 15:11:41;;;;;;;31.17;19.92;;;;;;;12.07;41.48;101006.84;10132233;29;20195;-77
2023/03/02 15:16:45;;;;;;;33.95;20.70;;;;;;;11.46;42.41;101001.59;10142705;29;20493;-80
2023/03/02 15:21:48;;;;;;;29.30;19.33;;;;;;;11.08;43.26;101002.59;10135303;29;20053;-79
2023/03/02 15:26:51;;;;;;;30.52;20.15;;;;;;;10.70;44.12;101005.41;10131536;29;20119;-80
2023/03/02 15:31:55;;;;;;;30.73;20.38;;;;;;;10.34;44.35;101018.63;10133356;29;20136;-79
2023/03/02 15:36:58;;;;;;;32.97;20.30;;;;;;;10.19;45.19;101024.22;10159130;29;21686;-81
2023/03/02 15:42:01;;;;;;;36.78;21.27;;;;;;;9.77;46.02;101026.16;10159804;29;20090;-81
2023/03/02 15:47:05;;;;;;;35.88;21.70;;;;;;;9.28;46.97;101032.94;10165570;29;20048;-77
2023/03/02 15:52:08;;;;;;;41.80;23.27;;;;;;;8.68;47.99;101041.28;10159735;29;20058;-77
2023/03/02 15:57:11;;;;;;;39.53;23.70;;;;;;;7.88;50.00;101028.22;10161034;29;20059;-79
2023/03/02 16:02:15;;;;;;;39.83;23.08;;;;;;;7.11;52.01;101030.97;10164309;29;20139;-76
2023/03/02 16:07:18;;;;;;;38.72;21.77;;;;;;;6.93;52.97;101041.72;10156568;29;20056;-78
2023/03/02 16:12:22;;;;;;;34.45;21.35;;;;;;;6.97;53.06;101037.94;10167381;29;20082;-78
2023/03/02 16:17:26;;;;;;;37.70;21.95;;;;;;;6.87;53.14;101033.16;10191611;29;20056;-77
2023/03/02 16:22:29;;;;;;;39.25;21.98;;;;;;;6.51;54.22;101036.88;10162808;29;20061;-78
2023/03/02 16:27:32;;;;;;;41.42;21.92;;;;;;;6.44;54.60;101036.31;10166210;29;20052;-79
2023/03/02 16:32:36;;;;;;;40.15;22.70;;;;;;;5.99;55.53;101048.47;10162625;29;20051;-77
2023/03/02 16:37:39;;;;;;;38.72;21.25;;;;;;;5.60;56.81;101057.56;10163957;29;20044;-78
2023/03/02 16:42:42;;;;;;;43.00;23.50;;;;;;;5.15;58.43;101072.16;10162965;29;20067;-79
2023/03/02 16:47:46;;;;;;;46.28;23.83;;;;;;;4.79;59.71;101069.38;10139974;29;20060;-78
2023/03/02 16:52:49;;;;;;;44.90;24.30;;;;;;;4.54;60.72;101074.97;10138703;29;20052;-80
2023/03/02 16:57:52;;;;;;;44.28;23.77;;;;;;;4.44;61.45;101097.56;10164901;29;20134;-79
2023/03/02 17:02:56;;;;;;;46.83;23.38;;;;;;;4.25;62.63;101101.06;10166336;29;20039;-79
2023/03/02 17:08:00;;;;;;;57.88;30.73;;;;;;;4.37;62.72;101110.31;10133860;29;20052;-76
2023/03/02 17:13:04;;;;;;;47.92;24.85;;;;;;;4.40;62.77;101104.84;10157831;29;20043;-77
2023/03/02 17:18:08;;;;;;;47.47;25.77;;;;;;;4.24;62.81;101122.41;10167628;29;20052;-79
2023/03/02 17:23:13;;;;;;;45.78;24.27;;;;;;;4.23;62.89;101129.50;10166536;29;20166;-78
2023/03/02 17:28:16;;;;;;;48.45;25.27;;;;;;;4.16;62.97;101142.19;10172486;29;20055;-81
2023/03/02 17:33:20;;;;;;;49.25;25.30;;;;;;;4.14;62.98;101143.19;10165208;29;20060;-78
2023/03/02 17:38:23;;;;;;;46.05;23.65;;;;;;;4.14;63.08;101148.50;10132657;29;20135;-80
2023/03/02 17:43:26;;;;;;;43.08;22.23;;;;;;;4.21;62.90;101152.66;10142996;29;20155;-79
2023/03/02 17:48:30;;;;;;;45.97;23.88;;;;;;;4.14;62.69;101149.41;10135888;29;20063;-79
2023/03/02 17:53:33;;;;;;;44.72;23.50;;;;;;;4.07;63.13;101166.53;10143434;29;20048;-81
2023/03/02 17:58:36;;;;;;;42.28;23.40;;;;;;;3.84;63.26;101158.59;10139412;29;20048;-78
2023/03/02 18:03:48;;;;;;;39.75;22.65;;;;;;;3.63;63.79;101165.66;10136778;29;20099;-80
2023/03/02 18:08:52;;;;;;;42.95;22.88;;;;;;;3.44;64.86;101174.34;10140357;29;20048;-80
2023/03/02 18:13:55;;;;;;;46.30;24.10;;;;;;;3.54;64.96;101163.34;10134746;29;20052;-78
2023/03/02 18:18:59;;;;;;;51.22;24.20;;;;;;;3.67;64.54;101167.25;10148497;29;20142;-80
2023/03/02 18:24:03;;;;;;;50.10;25.27;;;;;;;3.70;64.75;101165.38;10136260;29;20116;-78
2023/03/02 18:29:07;;;;;;;43.78;22.42;;;;;;;3.61;65.03;101167.50;10136290;29;20052;-80
2023/03/02 18:34:11;;;;;;;43.97;23.30;;;;;;;3.61;64.71;101162.19;10155745;29;20343;-79
2023/03/02 18:39:14;;;;;;;38.40;20.60;;;;;;;3.39;64.96;101168.34;10162921;29;20111;-81
2023/03/02 18:44:18;;;;;;;41.00;21.20;;;;;;;3.21;65.88;101169.03;10147006;29;20044;-80
2023/03/02 18:49:22;;;;;;;37.55;18.80;;;;;;;2.99;66.36;101188.47;10134272;29;20614;-80
2023/03/02 18:54:25;;;;;;;43.53;20.20;;;;;;;2.94;66.78;101181.59;10140605;29;20056;-80
2023/03/02 18:59:29;;;;;;;40.97;20.85;;;;;;;3.01;66.75;101194.56;10136527;29;20471;-80
2023/03/02 19:04:33;;;;;;;38.53;18.95;;;;;;;2.93;66.70;101204.59;10136923;29;20060;-81
2023/03/02 19:09:36;;;;;;;40.50;20.25;;;;;;;2.77;67.04;101201.63;10139617;29;21149;-80
2023/03/02 19:14:41;;;;;;;44.70;21.45;;;;;;;2.84;67.16;101202.25;10133465;29;20534;-79
2023/03/02 19:19:45;;;;;;;45.95;22.25;;;;;;;2.87;67.40;101210.13;10142852;29;20107;-80
2023/03/02 19:24:48;;;;;;;43.72;21.08;;;;;;;2.82;67.59;101207.63;10135506;29;20055;-80
2023/03/02 19:29:51;;;;;;;44.63;21.95;;;;;;;2.80;68.10;101204.16;10138460;29;20187;-80
2023/03/02 19:34:55;;;;;;;44.13;20.65;;;;;;;2.89;67.83;101210.94;10141826;29;20744;-78
2023/03/02 19:39:58;;;;;;;49.50;20.98;;;;;;;2.87;67.76;101209.25;10142146;29;20155;-78
2023/03/02 19:45:02;;;;;;;39.60;19.95;;;;;;;2.82;67.67;101218.22;10155330;29;20050;-79
2023/03/02 19:50:07;;;;;;;45.92;21.00;;;;;;;2.82;68.07;101212.91;10161395;29;20131;-79
2023/03/02 19:55:12;;;;;;;46.03;21.02;;;;;;;2.75;68.04;101207.91;10141134;29;20112;-80
2023/03/02 20:00:16;;;;;;;45.65;20.92;;;;;;;2.63;69.23;101208.31;10135076;29;20135;-79
2023/03/02 20:05:20;;;;;;;49.20;21.95;;;;;;;2.65;69.31;101217.97;10137470;29;20052;-78
2023/03/02 20:10:29;;;;;;;57.83;23.55;;;;;;;2.57;69.58;101204.09;10138779;29;20052;-79
2023/03/02 20:15:36;;;;;;;57.28;24.30;;;;;;;2.54;69.90;101214.81;10131662;29;20047;-79
2023/03/02 20:20:41;;;;;;;51.97;24.00;;;;;;;2.57;70.54;101217.38;10133666;29;20097;-80
2023/03/02 20:25:44;;;;;;;46.65;21.70;;;;;;;2.50;70.55;101215.81;10134060;29;20511;-81
2023/03/02 20:30:52;;;;;;;55.38;24.02;;;;;;;2.63;71.04;101214.50;10166979;29;20052;-79
2023/03/02 20:35:57;;;;;;;54.92;24.48;;;;;;;2.76;70.71;101210.50;10167640;29;20043;-78
2023/03/02 20:41:01;;;;;;;51.97;25.20;;;;;;;2.86;70.92;101210.19;10167721;29;20048;-77
2023/03/02 20:46:05;;;;;;;56.35;23.88;;;;;;;2.86;70.84;101199.56;10143856;29;20048;-79
2023/03/02 20:51:10;;;;;;;56.28;24.92;;;;;;;2.81;70.96;101202.38;10126386;29;20044;-77
2023/03/02 20:56:14;;;;;;;59.15;26.30;;;;;;;2.71;71.18;101206.28;10151699;29;20060;-81
2023/03/02 21:01:18;;;;;;;59.75;26.80;;;;;;;2.56;71.08;101197.94;10134613;29;20824;-79
2023/03/02 21:06:23;;;;;;;55.97;25.33;;;;;;;2.59;71.06;101210.22;10154334;29;20061;-76
2023/03/02 21:11:26;;;;;;;50.03;22.50;;;;;;;2.52;71.04;101206.88;10158594;29;20049;-79
2023/03/02 21:16:35;;;;;;;53.45;24.45;;;;;;;2.39;71.38;101197.63;10166075;29;20048;-77
2023/03/02 21:21:40;;;;;;;54.70;24.48;;;;;;;2.34;71.54;101210.16;10147170;29;20055;-80
2023/03/02 21:26:44;;;;;;;50.88;21.95;;;;;;;2.23;71.29;101215.81;10150638;29;20052;-78
2023/03/02 21:31:48;;;;;;;44.10;20.67;;;;;;;2.27;70.75;101221.88;10156993;29;20047;-80
2023/03/02 21:36:52;;;;;;;42.90;20.50;;;;;;;2.26;70.59;101213.06;10155630;29;20766;-80
2023/03/02 21:41:55;;;;;;;45.53;20.88;;;;;;;2.28;70.40;101210.38;10127578;29;20055;-80
2023/03/02 21:46:58;;;;;;;51.28;21.50;;;;;;;2.27;70.46;101212.16;10139313;29;20584;-80
2023/03/02 21:52:02;;;;;;;45.85;20.90;;;;;;;2.31;70.41;101216.44;10142604;23;20172;-77
2023/03/02 21:57:07;;;;;;;43.35;21.42;;;;;;;2.44;70.23;101201.00;10140296;29;20100;-76
2023/03/02 22:02:10;;;;;;;47.28;21.17;;;;;;;2.36;70.43;101213.66;10148223;29;20044;-77
2023/03/02 22:07:15;;;;;;;43.20;19.50;;;;;;;2.37;70.38;101210.94;10153426;29;20048;-77
2023/03/02 22:12:18;;;;;;;40.42;19.27;;;;;;;2.42;70.20;101207.25;10151416;29;20530;-78
2023/03/02 22:17:23;;;;;;;37.85;18.30;;;;;;;2.25;70.30;101213.09;10156900;29;20172;-77
2023/03/02 22:22:29;;;;;;;39.60;18.83;;;;;;;2.30;70.28;101206.72;10152142;29;20048;-77
2023/03/02 22:27:33;;;;;;;39.67;19.42;;;;;;;2.48;70.20;101212.34;10151441;29;20507;-77
2023/03/02 22:32:40;;;;;;;42.25;18.42;;;;;;;2.55;69.99;101214.78;10143714;29;20088;-77
2023/03/02 22:44:37;;;;;;;33.03;16.30;;;;;;;2.11;70.49;101211.81;10169514;29;20044;-77
2023/03/02 22:49:40;;;;;;;34.92;17.05;;;;;;;2.30;70.79;101212.03;10161552;29;20118;-77
2023/03/02 22:54:44;;;;;;;37.05;18.25;;;;;;;2.54;70.26;101213.03;10184508;23;20071;-77
2023/03/02 22:59:48;;;;;;;33.92;17.33;;;;;;;2.48;69.87;101212.34;10167299;29;20043;-77
2023/03/02 23:04:51;;;;;;;33.00;16.45;;;;;;;2.43;70.01;101217.81;10170609;29;20515;-75
2023/03/02 23:09:54;;;;;;;29.75;15.50;;;;;;;2.35;70.50;101209.25;10169033;29;20087;-79